Terminal Aerodrome Forecast
Issued by NWS Wilmington, OH

Current Version | Previous Version | Graphics & Text | Print | Product List | Glossary On
Versions: 1 2 3 4 5 6 7 8 9 10 11 12 13 14 15 16 17
000
FTUS41 KILN 262347
TAFCMH
TAF
KCMH 262347Z 2700/2724 18006KT P6SM -SHRA VCTS SCT025CB BKN060
      TEMPO 2700/2701 27020G30KT 2SM -TSRA BR BKN015CB
     FM270300 19006KT P6SM VCSH SCT025 BKN035
     FM270500 23006KT P6SM BKN015
     FM271400 23005KT P6SM BKN025=

USA.gov is the U.S. government's official web portal to all federal, state and local government web resources and services.